createdAt,value
2018-10-03T00:00:21.226Z,9.50
2018-10-03T00:03:24.339Z,9.50
2018-10-03T00:06:27.430Z,9.50
2018-10-03T00:09:31.397Z,9.50
2018-10-03T00:12:34.498Z,9.50
2018-10-03T00:15:37.630Z,9.40
2018-10-03T00:18:40.734Z,9.40
2018-10-03T00:21:43.871Z,9.50
2018-10-03T00:24:46.986Z,9.40
2018-10-03T00:27:50.141Z,9.50
2018-10-03T00:30:53.243Z,9.50
2018-10-03T00:33:56.365Z,9.50
2018-10-03T00:36:59.484Z,9.50
2018-10-03T00:40:02.623Z,9.50
2018-10-03T00:43:05.814Z,9.40
2018-10-03T00:46:08.977Z,9.40
2018-10-03T00:49:12.134Z,9.40
2018-10-03T00:52:15.308Z,9.40
2018-10-03T00:55:18.458Z,9.40
2018-10-03T00:58:21.757Z,9.40
2018-10-03T01:01:24.853Z,9.50
2018-10-03T01:04:28.006Z,9.50
2018-10-03T01:07:31.137Z,9.40
2018-10-03T01:10:34.253Z,9.40
2018-10-03T01:13:37.365Z,9.50
2018-10-03T01:16:40.490Z,9.40
2018-10-03T01:19:43.586Z,9.50
2018-10-03T01:22:46.706Z,9.40
2018-10-03T01:25:49.803Z,9.50
2018-10-03T01:28:52.965Z,9.40
2018-10-03T01:31:56.070Z,9.30
2018-10-03T01:34:59.195Z,9.30
2018-10-03T01:38:02.302Z,9.40
2018-10-03T01:41:05.446Z,9.40
2018-10-03T01:44:09.069Z,9.40
2018-10-03T01:47:12.186Z,9.30
2018-10-03T01:50:15.284Z,9.30
2018-10-03T01:53:18.527Z,9.30
2018-10-03T01:56:21.618Z,9.30
2018-10-03T01:59:24.750Z,9.20
2018-10-03T02:02:27.850Z,9.20
2018-10-03T02:05:30.978Z,9.10
2018-10-03T02:08:34.107Z,9.00
2018-10-03T02:11:37.224Z,9.00
2018-10-03T02:14:40.374Z,9.00
2018-10-03T02:17:43.463Z,9.00
2018-10-03T02:20:46.767Z,9.00
2018-10-03T02:23:49.911Z,9.10
2018-10-03T02:26:53.054Z,9.10
2018-10-03T02:29:56.286Z,9.10
2018-10-03T02:32:59.414Z,9.10
2018-10-03T02:36:02.507Z,9.20
2018-10-03T02:39:07.435Z,9.20
2018-10-03T02:42:10.538Z,9.20
2018-10-03T02:45:13.657Z,9.20
2018-10-03T02:48:16.790Z,9.10
2018-10-03T02:51:19.922Z,9.10
2018-10-03T02:54:23.046Z,9.00
2018-10-03T02:57:26.190Z,9.00
2018-10-03T03:00:29.303Z,9.00
2018-10-03T03:03:32.457Z,9.00
2018-10-03T03:06:35.575Z,9.00
2018-10-03T03:09:38.711Z,9.00
2018-10-03T03:12:41.847Z,9.00
2018-10-03T03:15:45.038Z,9.00
2018-10-03T03:18:48.150Z,8.90
2018-10-03T03:21:51.319Z,8.90
2018-10-03T03:24:54.448Z,9.00
2018-10-03T03:27:57.642Z,9.00
2018-10-03T03:31:00.785Z,9.00
2018-10-03T03:34:03.926Z,9.10
2018-10-03T03:37:07.024Z,9.10
2018-10-03T03:40:10.142Z,9.20
2018-10-03T03:43:13.235Z,9.30
2018-10-03T03:46:16.337Z,9.30
2018-10-03T03:49:19.479Z,9.20
2018-10-03T03:52:22.591Z,9.30
2018-10-03T03:55:25.698Z,9.20
2018-10-03T03:58:28.846Z,9.20
2018-10-03T04:01:32.021Z,9.20
2018-10-03T04:04:35.172Z,9.20
2018-10-03T04:07:38.321Z,9.20
2018-10-03T04:10:41.426Z,9.20
2018-10-03T04:13:44.560Z,9.30
2018-10-03T04:16:47.747Z,9.30
2018-10-03T04:19:50.855Z,9.40
2018-10-03T04:22:53.992Z,9.40
2018-10-03T04:25:57.095Z,9.40
2018-10-03T04:29:00.328Z,9.40
2018-10-03T04:32:03.430Z,9.40
2018-10-03T04:35:06.578Z,9.40
2018-10-03T04:38:09.719Z,9.40
2018-10-03T04:41:12.814Z,9.40
2018-10-03T04:44:15.930Z,9.50
2018-10-03T04:47:19.050Z,9.50
2018-10-03T04:50:22.173Z,9.40
2018-10-03T04:53:25.350Z,9.50
2018-10-03T04:56:28.481Z,9.50
2018-10-03T04:59:31.590Z,9.60
2018-10-03T05:02:34.715Z,9.60
2018-10-03T05:05:37.875Z,9.60
2018-10-03T05:08:40.977Z,9.60
2018-10-03T05:11:44.138Z,9.60
2018-10-03T05:14:47.246Z,9.60
2018-10-03T05:17:50.374Z,9.60
2018-10-03T05:20:53.538Z,9.70
2018-10-03T05:23:56.634Z,9.70
2018-10-03T05:26:59.779Z,9.60
2018-10-03T05:30:02.891Z,9.60
2018-10-03T05:33:06.368Z,9.60
2018-10-03T05:36:09.470Z,9.60
2018-10-03T05:39:13.342Z,9.60
2018-10-03T05:42:16.473Z,9.60
2018-10-03T05:45:19.602Z,9.70
2018-10-03T05:48:22.761Z,9.70
2018-10-03T05:51:25.923Z,9.70
2018-10-03T05:54:29.167Z,9.70
2018-10-03T05:57:32.282Z,9.70
2018-10-03T06:00:35.408Z,9.80
2018-10-03T06:03:38.552Z,9.80
2018-10-03T06:06:41.661Z,9.80
2018-10-03T06:09:44.799Z,9.90
2018-10-03T06:12:47.950Z,9.90
2018-10-03T06:15:51.079Z,9.90
2018-10-03T06:18:54.215Z,10.00
2018-10-03T06:21:57.362Z,10.10
2018-10-03T06:25:00.482Z,10.10
2018-10-03T06:28:03.674Z,10.20
2018-10-03T06:31:07.050Z,10.30
2018-10-03T06:34:10.152Z,10.30
2018-10-03T06:37:13.315Z,10.50
2018-10-03T06:40:20.477Z,10.70
2018-10-03T06:43:23.612Z,10.90
2018-10-03T06:46:26.746Z,11.00
2018-10-03T06:49:29.862Z,10.80
2018-10-03T06:52:32.981Z,10.70
2018-10-03T06:55:36.106Z,10.60
2018-10-03T06:58:39.265Z,10.60
2018-10-03T07:01:42.394Z,10.70
2018-10-03T07:04:45.538Z,11.20
2018-10-03T07:07:48.642Z,11.40
2018-10-03T07:10:51.752Z,11.60
2018-10-03T07:13:54.871Z,12.00
2018-10-03T07:16:58.079Z,12.10
2018-10-03T07:20:01.352Z,12.30
2018-10-03T07:23:04.439Z,12.20
2018-10-03T07:26:08.156Z,12.40
2018-10-03T07:29:11.566Z,12.80
2018-10-03T07:32:14.687Z,12.70
2018-10-03T07:35:17.783Z,12.40
2018-10-03T07:38:20.915Z,11.90
2018-10-03T07:41:24.027Z,11.60
2018-10-03T07:44:27.181Z,11.90
2018-10-03T07:47:30.420Z,12.60
2018-10-03T07:50:33.536Z,13.00
2018-10-03T07:53:36.872Z,13.50
2018-10-03T07:56:40.047Z,14.10
2018-10-03T07:59:43.170Z,14.70
2018-10-03T08:02:46.291Z,14.80
2018-10-03T08:05:49.426Z,14.80
2018-10-03T08:08:52.555Z,14.80
2018-10-03T08:11:55.702Z,14.50
2018-10-03T08:14:58.893Z,14.50
2018-10-03T08:18:02.078Z,14.60
2018-10-03T08:21:05.202Z,14.70
2018-10-03T08:24:08.294Z,15.00
2018-10-03T08:27:11.423Z,14.80
2018-10-03T08:30:14.566Z,14.80
2018-10-03T08:33:17.735Z,14.60
2018-10-03T08:36:20.840Z,14.50
2018-10-03T08:39:24.009Z,14.30
2018-10-03T08:42:27.155Z,14.10
2018-10-03T08:45:30.305Z,13.90
2018-10-03T08:48:33.403Z,13.90
2018-10-03T08:51:36.536Z,13.70
2018-10-03T08:54:39.640Z,13.40
2018-10-03T08:57:43.026Z,13.20
2018-10-03T09:00:46.160Z,13.10
2018-10-03T09:03:49.294Z,13.10
2018-10-03T09:06:52.440Z,13.20
2018-10-03T09:09:55.714Z,13.30
2018-10-03T09:12:58.841Z,13.30
2018-10-03T09:16:01.975Z,13.30
2018-10-03T09:19:05.097Z,13.30
2018-10-03T09:22:08.235Z,13.40
2018-10-03T09:25:11.361Z,13.50
2018-10-03T09:28:14.525Z,13.50
2018-10-03T09:31:17.643Z,13.60
2018-10-03T09:34:20.934Z,13.80
2018-10-03T09:37:24.074Z,13.90
2018-10-03T09:40:27.211Z,14.00
2018-10-03T09:43:30.350Z,13.80
2018-10-03T09:46:33.474Z,13.80
2018-10-03T09:49:36.611Z,13.70
2018-10-03T09:52:40.787Z,13.70
2018-10-03T09:55:43.914Z,13.50
2018-10-03T09:58:47.014Z,13.50
2018-10-03T10:01:50.131Z,13.60
2018-10-03T10:04:53.238Z,13.60
2018-10-03T10:07:56.351Z,13.80
2018-10-03T10:10:59.476Z,13.90
2018-10-03T10:14:02.636Z,14.10
2018-10-03T10:17:05.797Z,14.20
2018-10-03T10:20:08.918Z,14.00
2018-10-03T10:23:12.072Z,13.80
2018-10-03T10:26:15.202Z,13.80
2018-10-03T10:29:18.394Z,14.10
2018-10-03T10:32:21.655Z,14.20
2018-10-03T10:35:24.734Z,14.30
2018-10-03T10:38:27.953Z,14.50
2018-10-03T10:41:31.288Z,14.50
2018-10-03T10:44:34.230Z,14.40
2018-10-03T10:47:37.368Z,14.10
2018-10-03T10:50:40.484Z,14.10
2018-10-03T10:53:43.634Z,14.10
2018-10-03T10:56:46.759Z,14.20
2018-10-03T10:59:49.953Z,14.20
2018-10-03T11:02:53.063Z,14.10
2018-10-03T11:05:56.184Z,13.90
2018-10-03T11:09:01.871Z,13.80
2018-10-03T11:12:05.805Z,13.70
2018-10-03T11:15:08.906Z,13.70
2018-10-03T11:18:12.007Z,13.90
2018-10-03T11:21:15.174Z,14.20
2018-10-03T11:24:18.332Z,14.30
2018-10-03T11:27:21.444Z,14.20
2018-10-03T11:30:24.579Z,14.20
2018-10-03T11:33:27.715Z,14.10
2018-10-03T11:36:30.940Z,14.00
2018-10-03T11:39:34.018Z,13.80
2018-10-03T11:42:37.122Z,13.60
2018-10-03T11:45:40.271Z,13.60
2018-10-03T11:48:43.386Z,13.50
2018-10-03T11:51:46.535Z,13.50
2018-10-03T11:54:50.475Z,13.50
2018-10-03T11:57:53.598Z,13.50
2018-10-03T12:01:08.914Z,13.50
2018-10-03T12:04:12.022Z,13.50
2018-10-03T12:07:15.127Z,13.50
2018-10-03T12:10:18.307Z,13.50
2018-10-03T12:13:21.409Z,13.50
2018-10-03T12:16:24.510Z,13.50
2018-10-03T12:19:27.659Z,13.60
2018-10-03T12:22:30.771Z,13.80
2018-10-03T12:25:33.983Z,14.10
2018-10-03T12:28:37.316Z,14.10
2018-10-03T12:31:40.455Z,14.00
2018-10-03T12:34:43.588Z,13.80
2018-10-03T12:37:46.725Z,13.70
2018-10-03T12:40:49.826Z,13.70
2018-10-03T12:43:53.125Z,13.60
2018-10-03T12:46:56.260Z,13.50
2018-10-03T12:49:59.392Z,13.40
2018-10-03T12:53:02.523Z,13.40
2018-10-03T12:56:05.642Z,13.50
2018-10-03T12:59:08.827Z,13.60
2018-10-03T13:02:11.939Z,13.60
2018-10-03T13:05:15.061Z,13.70
2018-10-03T13:08:18.190Z,13.70
2018-10-03T13:11:21.305Z,13.80
2018-10-03T13:14:24.451Z,13.90
2018-10-03T13:17:27.563Z,13.90
2018-10-03T13:20:30.671Z,13.90
2018-10-03T13:23:33.814Z,13.90
2018-10-03T13:26:36.934Z,13.90
2018-10-03T13:29:40.078Z,13.90
2018-10-03T13:32:43.198Z,14.00
2018-10-03T13:35:46.311Z,13.90
2018-10-03T13:38:49.443Z,14.00
2018-10-03T13:41:52.562Z,14.00
2018-10-03T13:44:55.691Z,13.90
2018-10-03T13:47:58.801Z,13.80
2018-10-03T13:51:01.919Z,13.60
2018-10-03T13:54:05.074Z,13.60
2018-10-03T13:57:08.174Z,13.60
2018-10-03T14:00:11.319Z,13.60
2018-10-03T14:03:14.423Z,13.70
2018-10-03T14:06:17.519Z,13.70
2018-10-03T14:09:20.619Z,13.80
2018-10-03T14:12:23.735Z,13.80
2018-10-03T14:15:26.883Z,13.90
2018-10-03T14:18:30.018Z,13.90
2018-10-03T14:21:33.119Z,13.80
2018-10-03T14:24:36.258Z,13.80
2018-10-03T14:27:39.418Z,13.70
2018-10-03T14:30:42.546Z,13.60
2018-10-03T14:33:45.678Z,13.70
2018-10-03T14:36:48.804Z,13.70
2018-10-03T14:39:52.070Z,13.50
2018-10-03T14:42:55.142Z,13.40
2018-10-03T14:45:58.376Z,13.40
2018-10-03T14:49:01.514Z,13.50
2018-10-03T14:52:04.683Z,13.60
2018-10-03T14:55:07.794Z,13.60
2018-10-03T14:58:10.933Z,13.60
2018-10-03T15:01:14.013Z,13.60
2018-10-03T15:04:17.127Z,13.60
2018-10-03T15:07:20.274Z,13.60
2018-10-03T15:10:23.428Z,13.50
2018-10-03T15:13:26.514Z,13.50
2018-10-03T15:16:29.661Z,13.30
2018-10-03T15:19:32.741Z,13.30
2018-10-03T15:22:35.875Z,13.30
2018-10-03T15:25:38.970Z,13.40
2018-10-03T15:28:42.090Z,13.40
2018-10-03T15:31:45.224Z,13.40
2018-10-03T15:34:48.354Z,13.30
2018-10-03T15:37:51.470Z,13.30
2018-10-03T15:40:54.640Z,13.30
2018-10-03T15:44:02.269Z,13.20
2018-10-03T15:47:05.435Z,13.00
2018-10-03T15:50:08.907Z,12.90
2018-10-03T15:53:12.107Z,12.80
2018-10-03T15:56:15.243Z,12.70
2018-10-03T15:59:18.442Z,12.60
2018-10-03T16:02:21.598Z,12.50
2018-10-03T16:05:24.695Z,12.40
2018-10-03T16:08:27.833Z,12.30
2018-10-03T16:11:30.971Z,12.20
2018-10-03T16:14:34.371Z,12.10
2018-10-03T16:17:38.588Z,12.10
2018-10-03T16:20:45.963Z,12.00
2018-10-03T16:23:50.487Z,12.00
2018-10-03T16:26:58.663Z,12.00
2018-10-03T16:30:10.171Z,12.10
2018-10-03T16:33:14.031Z,12.00
2018-10-03T16:36:17.943Z,11.90
2018-10-03T16:39:21.092Z,11.80
2018-10-03T16:42:24.186Z,11.70
2018-10-03T16:45:27.334Z,11.70
2018-10-03T16:48:30.453Z,11.60
2018-10-03T16:51:33.591Z,11.50
2018-10-03T16:54:36.723Z,11.50
2018-10-03T16:57:39.850Z,11.50
2018-10-03T17:00:42.979Z,11.40
2018-10-03T17:03:46.134Z,11.40
2018-10-03T17:06:49.331Z,11.40
2018-10-03T17:09:53.542Z,11.40
2018-10-03T17:12:56.687Z,11.40
2018-10-03T17:15:59.946Z,11.40
2018-10-03T17:19:03.088Z,11.40
2018-10-03T17:22:06.199Z,11.40
2018-10-03T17:25:09.441Z,11.40
2018-10-03T17:28:12.584Z,11.30
2018-10-03T17:31:16.354Z,11.30
2018-10-03T17:34:19.586Z,11.30
2018-10-03T17:37:26.533Z,11.30
2018-10-03T17:40:30.092Z,11.30
2018-10-03T17:43:33.356Z,11.30
2018-10-03T17:46:36.676Z,11.20
2018-10-03T17:49:40.101Z,11.20
2018-10-03T17:52:43.428Z,11.00
2018-10-03T17:55:46.724Z,10.90
2018-10-03T17:58:50.015Z,10.70
2018-10-03T18:01:56.227Z,10.60
2018-10-03T18:04:59.568Z,10.50
2018-10-03T18:08:02.843Z,10.40
2018-10-03T18:11:06.089Z,10.30
2018-10-03T18:14:09.385Z,10.20
2018-10-03T18:17:12.645Z,10.10
2018-10-03T18:20:15.912Z,10.10
2018-10-03T18:23:19.217Z,10.00
2018-10-03T18:26:22.475Z,10.00
2018-10-03T18:29:25.804Z,9.90
2018-10-03T18:32:29.140Z,9.90
2018-10-03T18:35:32.479Z,9.80
2018-10-03T18:38:35.960Z,9.70
2018-10-03T18:41:39.719Z,9.70
2018-10-03T18:44:42.995Z,9.70
2018-10-03T18:47:46.414Z,9.70
2018-10-03T18:50:50.042Z,9.70
2018-10-03T18:53:53.329Z,9.60
2018-10-03T18:56:56.569Z,9.60
2018-10-03T18:59:59.990Z,9.60
2018-10-03T19:03:03.283Z,9.50
2018-10-03T19:06:06.672Z,9.50
2018-10-03T19:09:10.481Z,9.40
2018-10-03T19:12:13.926Z,9.50
2018-10-03T19:15:17.110Z,9.40
2018-10-03T19:18:20.627Z,9.40
2018-10-03T19:21:23.962Z,9.30
2018-10-03T19:24:27.284Z,9.30
2018-10-03T19:27:30.942Z,9.20
2018-10-03T19:30:34.641Z,9.20
2018-10-03T19:33:37.899Z,9.10
2018-10-03T19:36:41.158Z,9.00
2018-10-03T19:39:46.315Z,9.00
2018-10-03T19:42:50.377Z,8.90
2018-10-03T19:45:59.676Z,8.90
2018-10-03T19:49:02.846Z,8.90
2018-10-03T19:52:05.950Z,8.90
2018-10-03T19:55:09.070Z,8.90
2018-10-03T19:58:12.190Z,8.80
2018-10-03T20:01:15.331Z,8.80
2018-10-03T20:04:18.498Z,8.80
2018-10-03T20:07:21.637Z,8.70
2018-10-03T20:10:24.818Z,8.70
2018-10-03T20:13:27.917Z,8.70
2018-10-03T20:16:31.054Z,8.70
2018-10-03T20:19:34.240Z,8.70
2018-10-03T20:22:37.371Z,8.70
2018-10-03T20:25:40.499Z,8.70
2018-10-03T20:28:43.626Z,8.90
2018-10-03T20:31:46.774Z,8.80
2018-10-03T20:34:49.858Z,8.80
2018-10-03T20:37:52.975Z,8.70
2018-10-03T20:40:56.123Z,8.70
2018-10-03T20:43:59.241Z,8.70
2018-10-03T20:47:02.382Z,8.70
2018-10-03T20:50:05.487Z,8.70
2018-10-03T20:53:08.590Z,8.80
2018-10-03T20:56:12.819Z,8.80
2018-10-03T20:59:15.927Z,8.80
2018-10-03T21:02:19.006Z,8.80
2018-10-03T21:05:22.123Z,8.80
2018-10-03T21:08:25.267Z,8.90
2018-10-03T21:11:28.386Z,8.90
2018-10-03T21:14:31.507Z,8.90
2018-10-03T21:17:34.645Z,8.80
2018-10-03T21:20:37.746Z,8.80
2018-10-03T21:23:40.850Z,8.80
2018-10-03T21:26:43.958Z,8.80
2018-10-03T21:29:47.069Z,8.80
2018-10-03T21:32:51.213Z,8.80
2018-10-03T21:35:54.359Z,8.70
2018-10-03T21:38:57.547Z,8.60
2018-10-03T21:42:00.658Z,8.60
2018-10-03T21:45:03.763Z,8.60
2018-10-03T21:48:06.921Z,8.70
2018-10-03T21:51:10.027Z,8.70
2018-10-03T21:54:13.166Z,8.70
2018-10-03T21:57:17.290Z,8.80
2018-10-03T22:00:20.442Z,8.70
2018-10-03T22:03:24.246Z,8.60
2018-10-03T22:06:27.394Z,8.50
2018-10-03T22:09:30.495Z,8.50
2018-10-03T22:12:33.623Z,8.50
2018-10-03T22:15:36.719Z,8.50
2018-10-03T22:18:39.821Z,8.60
2018-10-03T22:21:42.922Z,8.70
2018-10-03T22:24:46.198Z,8.70
2018-10-03T22:27:49.315Z,8.70
2018-10-03T22:30:52.437Z,8.70
2018-10-03T22:33:55.534Z,8.70
2018-10-03T22:36:58.646Z,8.80
2018-10-03T22:40:01.725Z,8.80
2018-10-03T22:43:04.860Z,8.80
2018-10-03T22:46:07.927Z,8.80
2018-10-03T22:49:11.054Z,8.80
2018-10-03T22:52:14.168Z,8.70
2018-10-03T22:55:17.306Z,8.70
2018-10-03T22:58:20.402Z,8.70
2018-10-03T23:01:23.512Z,8.80
2018-10-03T23:04:26.902Z,8.80
2018-10-03T23:07:30.002Z,8.90
2018-10-03T23:10:33.114Z,8.90
2018-10-03T23:13:36.222Z,8.90
2018-10-03T23:16:39.325Z,8.90
2018-10-03T23:19:42.473Z,8.90
2018-10-03T23:22:45.586Z,8.90
2018-10-03T23:25:48.682Z,8.90
2018-10-03T23:28:51.797Z,9.00
2018-10-03T23:31:54.919Z,9.00
2018-10-03T23:34:58.042Z,9.00
2018-10-03T23:38:01.127Z,9.10
2018-10-03T23:41:04.226Z,9.10
2018-10-03T23:44:07.347Z,9.10
2018-10-03T23:47:10.522Z,9.20
2018-10-03T23:50:13.649Z,9.20
2018-10-03T23:53:16.735Z,9.20
2018-10-03T23:56:19.878Z,9.20
2018-10-03T23:59:23.002Z,9.20
